Time;durP1;ratioP1;P1;durP2;ratioP2;P2;SDS_P1;SDS_P2;PMS_P1;PMS_P2;Temp;Humidity;BMP_temperature;BMP_pressure;BME280_temperature;BME280_humidity;BME280_pressure;Samples;Min_cycle;Max_cycle;Signal;HPM_P1;HPM_P2
2023/02/04 00:01:24;;;;;;;0.20;0.20;;;;;;;6.04;93.81;102036.81;4908607;29;20063;-68
2023/02/04 00:03:51;;;;;;;0.20;0.20;;;;;;;5.94;94.36;102033.50;4923667;29;20107;-68
2023/02/04 00:06:16;;;;;;;0.75;0.55;;;;;;;6.00;94.04;102038.47;4921421;29;20186;-68
2023/02/04 00:08:42;;;;;;;0.20;0.20;;;;;;;5.90;94.66;102045.84;4922476;29;20036;-68
2023/02/04 00:11:07;;;;;;;0.20;0.20;;;;;;;5.85;94.21;102052.06;4927927;28;20158;-68
2023/02/04 00:13:32;;;;;;;0.30;0.30;;;;;;;5.78;94.83;102066.81;4906800;29;20038;-68
2023/02/04 00:15:58;;;;;;;0.20;0.20;;;;;;;5.87;93.71;102070.47;4905556;29;20418;-68
2023/02/04 00:18:23;;;;;;;0.35;0.30;;;;;;;5.94;94.40;102071.69;4910214;29;20112;-67
2023/02/04 00:20:48;;;;;;;0.20;0.20;;;;;;;6.04;93.45;102071.56;4904357;29;20039;-67
2023/02/04 00:23:14;;;;;;;0.20;0.20;;;;;;;6.02;93.84;102079.06;4909945;29;20043;-67
2023/02/04 00:25:39;;;;;;;0.30;0.30;;;;;;;5.97;93.31;102081.03;4927146;29;20413;-67
2023/02/04 00:28:05;;;;;;;0.20;0.20;;;;;;;6.22;93.28;102094.84;4903251;29;20273;-67
2023/02/04 00:30:30;;;;;;;0.20;0.20;;;;;;;6.30;93.51;102093.41;4920317;29;20490;-67
2023/02/04 00:32:56;;;;;;;0.20;0.20;;;;;;;6.39;92.12;102100.47;4934804;28;20175;-67
2023/02/04 00:35:23;;;;;;;0.30;0.30;;;;;;;6.52;92.33;102106.97;4910817;29;20564;-68
2023/02/04 00:37:48;;;;;;;0.20;0.20;;;;;;;6.61;91.73;102115.94;4905327;29;20091;-68
2023/02/04 00:40:14;;;;;;;0.20;0.20;;;;;;;6.65;91.79;102130.31;4941422;28;20036;-68
2023/02/04 00:42:39;;;;;;;0.28;0.28;;;;;;;6.71;90.98;102129.16;4914257;29;20036;-67
2023/02/04 00:45:05;;;;;;;0.20;0.20;;;;;;;6.43;91.32;102132.00;4916998;29;20555;-68
2023/02/04 00:47:31;;;;;;;0.20;0.20;;;;;;;6.55;91.31;102143.84;4921770;29;20532;-68
2023/02/04 00:49:56;;;;;;;0.20;0.20;;;;;;;6.55;91.23;102146.53;4914630;29;20062;-68
2023/02/04 00:52:22;;;;;;;0.30;0.30;;;;;;;6.57;91.14;102151.59;4915214;29;20147;-67
2023/02/04 00:54:47;;;;;;;0.20;0.20;;;;;;;6.35;92.07;102155.63;4916189;29;20040;-67
2023/02/04 00:57:12;;;;;;;0.20;0.20;;;;;;;6.23;92.00;102165.19;4932016;29;20561;-67
2023/02/04 00:59:38;;;;;;;0.28;0.28;;;;;;;6.29;92.03;102177.41;4924093;29;20040;-67
2023/02/04 01:02:03;;;;;;;0.20;0.20;;;;;;;6.10;91.96;102180.03;4919757;29;20028;-67
2023/02/04 01:04:29;;;;;;;0.20;0.20;;;;;;;5.94;92.91;102185.88;4941842;29;20063;-67
2023/02/04 01:06:54;;;;;;;0.20;0.20;;;;;;;6.04;93.27;102196.44;4929421;29;20028;-67
2023/02/04 01:09:19;;;;;;;0.20;0.20;;;;;;;6.23;92.59;102205.31;4923088;29;20036;-67
2023/02/04 01:11:45;;;;;;;0.28;0.28;;;;;;;6.14;92.51;102215.03;4926470;29;20039;-67
2023/02/04 01:14:11;;;;;;;0.20;0.20;;;;;;;5.96;93.37;102213.13;4939652;29;20511;-67
2023/02/04 01:16:38;;;;;;;0.20;0.20;;;;;;;6.07;93.39;102218.06;4927162;29;20122;-67
2023/02/04 01:19:03;;;;;;;0.45;0.45;;;;;;;6.06;93.63;102227.16;4923000;29;20127;-68
2023/02/04 01:21:29;;;;;;;0.22;0.22;;;;;;;6.11;93.36;102232.47;4927144;29;20059;-68
2023/02/04 01:23:55;;;;;;;0.52;0.52;;;;;;;6.27;93.51;102244.53;4935623;29;20168;-68
2023/02/04 01:26:21;;;;;;;0.20;0.20;;;;;;;6.28;93.30;102242.66;4920332;29;20050;-67
2023/02/04 01:28:46;;;;;;;0.20;0.20;;;;;;;6.30;93.12;102257.38;4922443;29;20044;-67
2023/02/04 01:31:12;;;;;;;0.20;0.20;;;;;;;6.38;92.80;102253.25;4923355;29;20444;-67
2023/02/04 01:33:38;;;;;;;0.20;0.20;;;;;;;6.40;92.37;102261.78;4941056;29;20425;-67
2023/02/04 01:36:03;;;;;;;0.20;0.20;;;;;;;6.41;91.77;102268.72;4915525;29;20032;-68
2023/02/04 01:38:29;;;;;;;0.30;0.30;;;;;;;6.52;91.35;102280.91;4928282;29;20397;-67
2023/02/04 01:40:55;;;;;;;0.20;0.20;;;;;;;6.55;91.33;102280.31;4930776;29;20036;-67
2023/02/04 01:43:24;;;;;;;0.20;0.20;;;;;;;6.56;91.32;102278.44;4907033;29;20043;-67
2023/02/04 01:45:50;;;;;;;0.20;0.20;;;;;;;6.62;90.94;102280.75;4928467;29;20032;-67
2023/02/04 01:48:19;;;;;;;0.30;0.30;;;;;;;6.60;90.87;102288.28;4929873;29;20047;-67
2023/02/04 01:51:04;;;;;;;0.20;0.20;;;;;;;6.62;90.77;102290.69;4929983;29;20054;-67
2023/02/04 01:53:30;;;;;;;0.20;0.20;;;;;;;6.61;89.71;102299.78;4912513;29;20032;-67
2023/02/04 01:55:56;;;;;;;0.20;0.20;;;;;;;6.59;90.45;102304.63;4930251;29;20134;-67
2023/02/04 01:58:21;;;;;;;0.20;0.20;;;;;;;6.66;89.63;102308.53;4928720;29;20456;-67
2023/02/04 02:00:47;;;;;;;0.20;0.20;;;;;;;6.69;89.35;102307.97;4928981;29;20215;-67
2023/02/04 02:03:12;;;;;;;0.20;0.20;;;;;;;6.72;88.83;102307.41;4928956;29;20047;-67
2023/02/04 02:05:45;;;;;;;0.20;0.20;;;;;;;6.76;89.03;102312.97;4932976;29;20036;-67
2023/02/04 02:08:12;;;;;;;0.20;0.20;;;;;;;6.72;88.55;102312.75;4915661;29;20510;-67
2023/02/04 02:10:40;;;;;;;0.20;0.20;;;;;;;6.69;88.60;102320.56;4927432;29;20174;-68
2023/02/04 02:13:08;;;;;;;0.20;0.20;;;;;;;6.70;88.81;102317.59;4914328;29;20032;-67
2023/02/04 02:15:37;;;;;;;0.30;0.30;;;;;;;6.73;88.64;102329.63;4915046;29;20509;-67
2023/02/04 02:18:04;;;;;;;0.20;0.20;;;;;;;6.70;88.06;102333.66;4915505;29;20520;-67
2023/02/04 02:20:30;;;;;;;0.20;0.20;;;;;;;6.76;87.71;102339.72;4928993;29;20028;-67
2023/02/04 02:23:33;;;;;;;0.30;0.30;;;;;;;6.79;87.55;102341.84;4929101;29;20099;-67
2023/02/04 02:25:58;;;;;;;0.20;0.20;;;;;;;6.73;88.00;102348.34;4939539;28;20390;-67
2023/02/04 02:28:23;;;;;;;0.30;0.30;;;;;;;6.74;88.27;102350.72;4913845;29;20043;-67
2023/02/04 02:30:49;;;;;;;0.20;0.20;;;;;;;6.74;87.98;102350.72;4914566;29;20039;-67
2023/02/04 02:33:18;;;;;;;0.20;0.20;;;;;;;6.67;88.45;102350.28;4928811;29;20087;-67
2023/02/04 02:35:47;;;;;;;0.20;0.20;;;;;;;6.60;88.95;102362.44;4916282;29;20046;-67
2023/02/04 02:38:33;;;;;;;0.20;0.20;;;;;;;6.66;88.09;102369.31;4914361;29;20494;-68
2023/02/04 02:41:00;;;;;;;0.40;0.40;;;;;;;6.65;89.18;102379.22;4873379;29;20084;-67
2023/02/04 02:43:27;;;;;;;0.20;0.20;;;;;;;6.68;88.42;102383.22;4854605;29;20189;-67
2023/02/04 02:45:57;;;;;;;0.20;0.20;;;;;;;6.53;88.85;102386.03;4865597;29;20052;-68
2023/02/04 02:48:22;;;;;;;0.20;0.20;;;;;;;6.51;88.80;102396.22;4853180;29;20648;-67
2023/02/04 02:50:48;;;;;;;0.30;0.30;;;;;;;6.51;89.19;102399.72;4851790;29;20119;-67
2023/02/04 02:53:17;;;;;;;0.20;0.20;;;;;;;6.48;88.56;102402.16;4873484;29;20093;-67
2023/02/04 02:55:44;;;;;;;0.57;0.50;;;;;;;6.38;89.00;102403.06;4846657;29;20078;-67
2023/02/04 02:58:25;;;;;;;0.20;0.20;;;;;;;6.39;89.21;102418.03;4854689;29;20052;-67
2023/02/04 03:00:51;;;;;;;0.20;0.20;;;;;;;6.38;88.97;102413.78;4857217;29;20037;-67
2023/02/04 03:03:24;;;;;;;0.20;0.20;;;;;;;6.22;88.84;102420.34;4852730;29;20052;-67
2023/02/04 03:05:56;;;;;;;0.20;0.20;;;;;;;6.17;88.90;102425.75;4868780;29;20515;-67
2023/02/04 03:08:22;;;;;;;0.30;0.30;;;;;;;6.17;89.34;102429.22;4859518;29;20033;-67
2023/02/04 03:10:48;;;;;;;0.52;0.52;;;;;;;6.07;89.20;102433.84;4848795;29;20642;-67
2023/02/04 03:13:15;;;;;;;0.20;0.20;;;;;;;5.95;88.94;102441.41;4869326;29;20195;-67
2023/02/04 03:15:42;;;;;;;0.20;0.20;;;;;;;5.96;88.91;102448.38;4844981;29;20045;-67
2023/02/04 03:18:08;;;;;;;0.25;0.25;;;;;;;5.91;89.33;102451.88;4895024;29;20059;-67
2023/02/04 03:20:35;;;;;;;0.20;0.20;;;;;;;5.80;89.49;102452.19;4911158;29;20020;-67
2023/02/04 03:23:00;;;;;;;0.20;0.20;;;;;;;5.70;89.15;102469.09;4930002;29;20043;-67
2023/02/04 03:25:27;;;;;;;0.30;0.30;;;;;;;5.69;90.15;102477.41;4941170;28;20219;-67
2023/02/04 03:27:58;;;;;;;0.10;0.10;;;;;;;5.65;90.70;102479.03;4929561;29;20401;-67
2023/02/04 03:30:25;;;;;;;0.20;0.20;;;;;;;5.72;90.31;102485.66;4926755;29;20042;-67
2023/02/04 03:32:51;;;;;;;0.20;0.20;;;;;;;5.72;90.52;102491.00;4917175;29;20048;-68
2023/02/04 03:35:17;;;;;;;0.20;0.20;;;;;;;5.64;90.96;102494.25;4912303;29;20032;-67
2023/02/04 03:37:43;;;;;;;0.20;0.20;;;;;;;5.63;91.47;102503.34;4913677;29;20040;-67
2023/02/04 03:40:09;;;;;;;0.20;0.20;;;;;;;5.72;91.28;102504.38;4928878;29;20040;-67
2023/02/04 03:42:34;;;;;;;0.20;0.20;;;;;;;5.77;91.17;102520.34;4912085;29;20043;-67
2023/02/04 03:45:00;;;;;;;0.20;0.20;;;;;;;5.78;91.62;102518.50;4911386;29;20040;-67
2023/02/04 03:47:25;;;;;;;0.30;0.30;;;;;;;5.81;91.17;102518.72;4913276;29;20091;-67
2023/02/04 03:49:51;;;;;;;0.20;0.20;;;;;;;5.83;91.53;102526.47;4912958;29;20048;-67
2023/02/04 03:52:16;;;;;;;0.20;0.20;;;;;;;5.89;91.60;102538.78;4912070;29;20087;-67
2023/02/04 03:54:41;;;;;;;0.20;0.20;;;;;;;5.91;91.34;102548.13;4914122;29;20038;-67
2023/02/04 03:57:07;;;;;;;0.20;0.20;;;;;;;5.98;91.03;102561.19;4913156;29;20032;-67
2023/02/04 03:59:32;;;;;;;0.20;0.20;;;;;;;5.97;91.05;102578.28;4907120;29;20044;-67
2023/02/04 04:01:58;;;;;;;0.30;0.30;;;;;;;5.86;90.74;102576.75;4912893;29;20036;-67
2023/02/04 04:04:23;;;;;;;0.20;0.20;;;;;;;5.87;91.31;102573.00;4914822;29;20040;-67
2023/02/04 04:06:49;;;;;;;0.20;0.20;;;;;;;5.84;90.65;102581.56;4918140;29;20040;-67
2023/02/04 04:09:14;;;;;;;0.20;0.20;;;;;;;5.80;89.64;102589.31;4916193;29;20126;-67
2023/02/04 04:11:39;;;;;;;0.30;0.30;;;;;;;5.72;90.09;102591.75;4917602;29;20040;-67
2023/02/04 04:14:05;;;;;;;0.20;0.20;;;;;;;5.59;89.63;102595.03;4935105;29;20032;-67
2023/02/04 04:16:30;;;;;;;0.40;0.40;;;;;;;5.49;89.90;102604.69;4917193;29;20032;-67
2023/02/04 04:18:56;;;;;;;0.30;0.30;;;;;;;5.45;89.32;102616.97;4911579;29;20035;-67
2023/02/04 04:21:21;;;;;;;0.43;0.28;;;;;;;5.36;89.52;102613.25;4913507;29;20028;-67
2023/02/04 04:23:47;;;;;;;0.20;0.20;;;;;;;5.26;89.55;102615.16;4920388;29;20036;-67
2023/02/04 04:26:12;;;;;;;0.20;0.20;;;;;;;5.21;89.71;102609.78;4916186;29;20043;-67
2023/02/04 04:28:38;;;;;;;0.30;0.30;;;;;;;5.20;89.50;102614.38;4932104;29;20519;-67
2023/02/04 04:31:03;;;;;;;0.30;0.30;;;;;;;5.17;88.69;102617.56;4915577;29;20043;-67
2023/02/04 04:33:29;;;;;;;0.20;0.20;;;;;;;5.18;89.26;102624.50;4915550;29;20044;-67
2023/02/04 04:35:54;;;;;;;0.20;0.20;;;;;;;5.02;89.41;102620.25;4915399;29;20031;-67
2023/02/04 04:38:20;;;;;;;0.22;0.22;;;;;;;4.97;89.32;102612.25;4936484;29;20032;-67
2023/02/04 04:40:45;;;;;;;0.20;0.20;;;;;;;4.97;89.68;102612.25;4916720;29;20771;-67
2023/02/04 04:43:10;;;;;;;0.20;0.20;;;;;;;5.00;88.88;102613.56;4914641;29;20032;-67
2023/02/04 04:45:36;;;;;;;0.20;0.20;;;;;;;4.96;89.08;102629.31;4917209;29;20092;-67
2023/02/04 04:48:01;;;;;;;0.20;0.20;;;;;;;4.95;89.18;102630.41;4917706;29;20028;-67
2023/02/04 04:50:27;;;;;;;0.20;0.20;;;;;;;4.85;89.29;102638.41;4915439;29;20441;-68
2023/02/04 04:52:52;;;;;;;0.20;0.20;;;;;;;4.79;89.65;102634.13;4917211;29;20464;-67
2023/02/04 04:55:18;;;;;;;0.30;0.30;;;;;;;4.72;89.65;102636.28;4917250;29;20121;-67
2023/02/04 04:57:44;;;;;;;0.20;0.20;;;;;;;4.66;89.48;102640.00;4923942;29;20100;-67
2023/02/04 05:00:14;;;;;;;0.20;0.20;;;;;;;4.58;90.13;102638.66;4931658;29;20486;-67
2023/02/04 05:02:39;;;;;;;0.30;0.30;;;;;;;4.61;89.92;102642.66;4932077;29;20048;-68
2023/02/04 05:05:05;;;;;;;0.20;0.20;;;;;;;4.61;89.75;102647.22;4916104;29;20032;-67
2023/02/04 05:07:30;;;;;;;0.20;0.20;;;;;;;4.47;89.57;102645.03;4915741;29;20119;-67
2023/02/04 05:09:56;;;;;;;0.20;0.20;;;;;;;4.37;90.15;102641.56;4916778;29;20074;-67
2023/02/04 05:12:21;;;;;;;0.30;0.30;;;;;;;4.31;90.06;102650.59;4947358;28;20140;-67
2023/02/04 05:14:46;;;;;;;0.28;0.28;;;;;;;4.42;90.01;102658.38;4937120;29;20103;-67
2023/02/04 05:17:12;;;;;;;0.25;0.25;;;;;;;4.35;90.08;102662.34;4918277;29;20044;-68
2023/02/04 05:19:37;;;;;;;0.30;0.30;;;;;;;4.28;90.35;102667.13;4915894;29;20044;-67
2023/02/04 05:22:03;;;;;;;0.20;0.20;;;;;;;4.13;90.54;102680.41;4912633;29;20035;-67
2023/02/04 05:24:28;;;;;;;0.25;0.25;;;;;;;4.18;91.05;102683.09;4914501;29;20099;-68
2023/02/04 05:26:53;;;;;;;0.20;0.20;;;;;;;4.27;91.27;102693.00;4918420;29;20067;-68
2023/02/04 05:29:19;;;;;;;0.20;0.20;;;;;;;4.21;91.14;102709.22;4916771;29;20038;-68
2023/02/04 05:31:44;;;;;;;0.40;0.40;;;;;;;4.30;91.20;102708.47;4914533;29;20426;-67
2023/02/04 05:34:10;;;;;;;0.20;0.20;;;;;;;4.39;91.00;102712.22;4931093;29;20059;-68
2023/02/04 05:36:35;;;;;;;0.20;0.20;;;;;;;4.41;91.04;102709.31;4927356;29;20453;-68
2023/02/04 05:39:01;;;;;;;0.22;0.22;;;;;;;4.47;90.19;102717.03;4916273;29;20036;-67
2023/02/04 05:41:26;;;;;;;0.45;0.45;;;;;;;4.30;90.76;102718.31;4911766;29;20037;-67
2023/02/04 05:43:51;;;;;;;0.30;0.30;;;;;;;4.23;91.29;102725.78;4915940;29;20024;-68
2023/02/04 05:46:17;;;;;;;0.20;0.20;;;;;;;4.22;91.64;102734.84;4918568;29;20043;-67
2023/02/04 05:48:42;;;;;;;0.22;0.22;;;;;;;4.30;91.29;102734.31;4930769;29;20040;-67
2023/02/04 05:51:07;;;;;;;0.32;0.32;;;;;;;4.11;90.95;102733.16;4913246;29;20509;-68
2023/02/04 05:53:33;;;;;;;0.57;0.50;;;;;;;4.16;91.79;102741.22;4916804;29;20044;-68
2023/02/04 05:55:58;;;;;;;0.20;0.20;;;;;;;4.16;91.95;102743.88;4917826;29;20031;-68
2023/02/04 05:58:24;;;;;;;0.20;0.20;;;;;;;4.07;91.84;102756.06;4913952;29;20039;-68
2023/02/04 06:00:49;;;;;;;0.17;0.17;;;;;;;4.03;92.36;102749.66;4916644;29;20123;-68
2023/02/04 06:03:14;;;;;;;0.20;0.20;;;;;;;4.00;92.52;102744.84;4916622;29;20036;-68
2023/02/04 06:05:40;;;;;;;0.30;0.30;;;;;;;4.10;92.74;102753.72;4919206;29;20031;-68
2023/02/04 06:08:05;;;;;;;0.30;0.30;;;;;;;4.15;92.14;102747.59;4923670;29;20031;-68
2023/02/04 06:10:31;;;;;;;0.30;0.30;;;;;;;4.13;92.02;102749.72;4939306;29;20123;-68
2023/02/04 06:12:56;;;;;;;0.30;0.30;;;;;;;4.10;92.13;102755.56;4940356;29;20119;-68
2023/02/04 06:15:22;;;;;;;0.10;0.10;;;;;;;4.08;92.13;102755.03;4914727;29;20055;-68
2023/02/04 06:17:47;;;;;;;0.20;0.20;;;;;;;4.02;91.63;102753.38;4915787;29;20033;-68
2023/02/04 06:20:13;;;;;;;0.20;0.20;;;;;;;3.81;91.76;102762.31;4930505;29;20477;-68
2023/02/04 06:22:39;;;;;;;0.20;0.20;;;;;;;3.83;92.38;102769.00;4940081;29;20036;-68
2023/02/04 06:25:05;;;;;;;0.10;0.10;;;;;;;3.87;92.50;102774.63;4910992;29;20035;-68
2023/02/04 06:27:30;;;;;;;0.30;0.30;;;;;;;3.87;92.27;102780.75;4919198;29;20509;-68
2023/02/04 06:29:56;;;;;;;0.30;0.30;;;;;;;3.87;91.68;102787.94;4919519;29;20064;-68
2023/02/04 06:32:21;;;;;;;0.73;0.50;;;;;;;3.83;91.61;102798.31;4914436;29;20103;-68
2023/02/04 06:34:47;;;;;;;0.20;0.20;;;;;;;3.78;91.05;102798.28;4914873;29;20039;-68
2023/02/04 06:37:14;;;;;;;0.20;0.20;;;;;;;3.76;91.86;102803.06;4910351;29;20036;-68
2023/02/04 06:39:40;;;;;;;0.32;0.32;;;;;;;3.77;91.89;102809.19;4929274;29;20067;-68
2023/02/04 06:42:05;;;;;;;0.30;0.30;;;;;;;3.82;91.67;102820.69;4914662;29;20032;-68
2023/02/04 06:44:31;;;;;;;0.20;0.20;;;;;;;3.60;91.57;102828.75;4929451;29;20512;-68
2023/02/04 06:46:56;;;;;;;0.28;0.28;;;;;;;3.49;91.84;102824.41;4909618;29;20111;-68
2023/02/04 06:49:23;;;;;;;0.20;0.20;;;;;;;3.41;92.65;102824.88;4927907;29;20031;-68
2023/02/04 06:51:49;;;;;;;0.20;0.20;;;;;;;3.48;92.71;102835.34;4914595;29;20489;-68
2023/02/04 06:54:15;;;;;;;0.20;0.20;;;;;;;3.55;92.12;102836.72;4920587;29;20119;-68
2023/02/04 06:56:42;;;;;;;1.00;1.00;;;;;;;3.50;92.21;102839.31;4899346;29;20039;-68
2023/02/04 06:59:08;;;;;;;0.88;0.88;;;;;;;3.54;92.83;102842.31;4903659;29;20034;-68
2023/02/04 07:01:33;;;;;;;0.30;0.30;;;;;;;3.52;92.95;102853.19;4910320;29;20929;-68
2023/02/04 07:03:59;;;;;;;0.22;0.22;;;;;;;3.52;92.76;102858.53;4934296;29;20131;-68
2023/02/04 07:06:24;;;;;;;0.30;0.30;;;;;;;3.47;92.65;102860.34;4912976;29;20091;-68
2023/02/04 07:08:50;;;;;;;0.30;0.30;;;;;;;3.44;93.21;102861.66;4914954;29;20494;-68
2023/02/04 07:11:15;;;;;;;0.30;0.30;;;;;;;3.47;93.29;102873.66;4912466;29;20474;-68
2023/02/04 07:13:41;;;;;;;0.20;0.20;;;;;;;3.49;93.06;102875.00;4947866;28;20028;-68
2023/02/04 07:16:07;;;;;;;0.30;0.30;;;;;;;3.58;93.30;102878.03;4933112;29;20063;-67
2023/02/04 07:18:32;;;;;;;0.20;0.20;;;;;;;3.57;93.21;102885.22;4919346;29;20383;-68
2023/02/04 07:20:58;;;;;;;0.40;0.40;;;;;;;3.58;93.33;102892.13;4914003;29;20043;-67
2023/02/04 07:23:24;;;;;;;0.28;0.28;;;;;;;3.72;92.75;102895.19;4907063;29;20032;-68
2023/02/04 07:25:52;;;;;;;0.20;0.20;;;;;;;3.63;92.73;102899.38;4906748;29;20554;-67
2023/02/04 07:28:18;;;;;;;0.30;0.30;;;;;;;3.64;92.99;102906.28;4913486;29;20059;-67
2023/02/04 07:30:44;;;;;;;0.17;0.17;;;;;;;3.68;93.02;102902.88;4914015;29;20050;-68
2023/02/04 07:33:09;;;;;;;0.20;0.20;;;;;;;3.78;92.63;102904.84;4909840;29;20214;-68
2023/02/04 07:35:36;;;;;;;0.22;0.22;;;;;;;3.72;92.67;102900.50;4913636;29;20050;-67
2023/02/04 07:38:03;;;;;;;0.30;0.30;;;;;;;3.79;92.73;102906.47;4907898;29;20583;-67
2023/02/04 07:40:28;;;;;;;0.40;0.40;;;;;;;3.84;92.55;102905.69;4913443;29;20497;-67
2023/02/04 07:42:54;;;;;;;0.20;0.20;;;;;;;3.89;92.56;102921.72;4917397;29;20031;-67
2023/02/04 07:45:21;;;;;;;0.13;0.13;;;;;;;3.98;92.91;102914.88;4933330;29;20478;-67
2023/02/04 07:47:46;;;;;;;0.22;0.22;;;;;;;3.76;92.76;102924.78;4911596;29;20092;-68
2023/02/04 07:50:32;;;;;;;0.20;0.20;;;;;;;3.76;93.69;102920.28;4915329;29;20044;-68
2023/02/04 07:52:57;;;;;;;0.20;0.20;;;;;;;3.77;93.72;102926.41;4877011;29;20041;-67
2023/02/04 07:55:23;;;;;;;0.20;0.20;;;;;;;3.65;94.55;102929.22;4884558;29;20044;-68
2023/02/04 07:57:48;;;;;;;0.28;0.28;;;;;;;3.72;94.28;102939.69;4872882;29;20048;-68
2023/02/04 08:00:15;;;;;;;0.30;0.30;;;;;;;3.76;94.42;102938.91;4873144;29;20041;-67
2023/02/04 08:02:41;;;;;;;0.30;0.30;;;;;;;3.70;94.88;102939.13;4865866;29;20048;-68
2023/02/04 08:05:08;;;;;;;0.57;0.55;;;;;;;3.76;95.02;102946.09;4867951;29;20061;-68
2023/02/04 08:07:33;;;;;;;0.30;0.30;;;;;;;3.81;94.49;102943.50;4871394;29;20574;-68
2023/02/04 08:09:58;;;;;;;0.30;0.30;;;;;;;3.85;94.66;102950.75;4873925;29;20040;-67
2023/02/04 08:12:24;;;;;;;0.30;0.30;;;;;;;3.94;94.50;102943.06;4865910;29;20024;-67
2023/02/04 08:14:49;;;;;;;0.20;0.20;;;;;;;4.08;94.10;102947.75;4874815;29;20040;-68
2023/02/04 08:17:15;;;;;;;0.35;0.35;;;;;;;4.13;93.98;102946.97;4855440;29;20152;-68
2023/02/04 08:19:40;;;;;;;0.20;0.20;;;;;;;4.02;93.83;102954.09;4869345;29;20048;-67
2023/02/04 08:22:06;;;;;;;0.30;0.30;;;;;;;4.03;94.26;102953.03;4865403;29;20112;-68
2023/02/04 08:24:31;;;;;;;0.20;0.20;;;;;;;4.01;94.79;102955.13;4908778;23;20055;-54
2023/02/04 08:26:57;;;;;;;0.20;0.20;;;;;;;4.18;94.67;102960.34;4946833;29;20039;-59
2023/02/04 08:29:24;;;;;;;0.22;0.22;;;;;;;4.26;93.98;102955.34;4956758;28;20058;-56
2023/02/04 08:31:50;;;;;;;0.20;0.20;;;;;;;4.34;93.80;102954.06;4939382;29;20028;-56
2023/02/04 08:34:16;;;;;;;0.30;0.30;;;;;;;4.40;93.60;102956.53;4944201;29;20406;-54
2023/02/04 08:36:43;;;;;;;0.20;0.20;;;;;;;4.62;93.56;102953.75;4937815;28;20031;-57
2023/02/04 08:39:08;;;;;;;0.20;0.20;;;;;;;4.95;93.55;102961.41;4949822;28;20032;-59
2023/02/04 08:41:34;;;;;;;0.32;0.32;;;;;;;5.33;93.02;102958.34;4943280;29;20110;-57
2023/02/04 08:43:59;;;;;;;0.30;0.30;;;;;;;5.78;91.61;102970.22;4941148;29;20032;-60
2023/02/04 08:46:25;;;;;;;0.10;0.10;;;;;;;6.17;90.02;102963.34;4944600;28;20105;-58
2023/02/04 08:48:50;;;;;;;0.20;0.20;;;;;;;6.35;88.90;102981.50;4943302;29;20094;-55
2023/02/04 08:51:16;;;;;;;0.20;0.20;;;;;;;6.55;87.07;102981.50;4941042;28;20085;-58
2023/02/04 08:53:41;;;;;;;0.30;0.30;;;;;;;6.48;85.83;102980.97;4940360;28;20691;-60
2023/02/04 08:56:08;;;;;;;0.20;0.20;;;;;;;6.51;84.37;102983.09;4937434;28;21411;-56
2023/02/04 08:58:34;;;;;;;0.20;0.20;;;;;;;6.48;83.65;102983.66;4941891;28;20074;-60
2023/02/04 09:00:59;;;;;;;0.20;0.20;;;;;;;6.49;83.25;102987.09;4943816;28;20051;-60
2023/02/04 09:03:25;;;;;;;0.20;0.20;;;;;;;6.64;83.32;102987.91;4942169;28;20390;-59
2023/02/04 09:05:50;;;;;;;0.20;0.20;;;;;;;6.72;82.35;103000.75;4953690;28;20051;-60
2023/02/04 09:08:16;;;;;;;0.10;0.10;;;;;;;6.88;82.23;103007.69;4945766;28;20379;-60
2023/02/04 09:10:41;;;;;;;0.30;0.30;;;;;;;6.93;81.44;103004.97;4950374;28;20043;-58
2023/02/04 09:13:10;;;;;;;0.30;0.30;;;;;;;6.97;81.65;103008.72;4942798;29;20031;-57
2023/02/04 09:15:36;;;;;;;0.15;0.15;;;;;;;7.19;81.12;103021.78;4940140;28;20046;-57
2023/02/04 09:18:10;;;;;;;0.20;0.20;;;;;;;7.43;80.66;103019.28;4940341;28;20035;-56
2023/02/04 09:20:38;;;;;;;0.40;0.40;;;;;;;7.65;79.60;103025.06;4940178;28;20126;-57
2023/02/04 09:23:07;;;;;;;0.20;0.20;;;;;;;7.72;78.97;103023.72;4941313;28;20027;-57
2023/02/04 09:25:33;;;;;;;0.20;0.20;;;;;;;7.86;77.73;103037.28;4935791;28;20115;-57
2023/02/04 09:27:58;;;;;;;0.20;0.20;;;;;;;8.01;76.79;103038.00;4940792;28;20162;-58
2023/02/04 09:30:24;;;;;;;0.20;0.20;;;;;;;7.95;75.91;103038.31;4949773;28;20035;-59
2023/02/04 09:32:50;;;;;;;2.28;0.43;;;;;;;8.17;74.31;103036.00;4938100;28;20044;-60
2023/02/04 09:35:15;;;;;;;0.17;0.17;;;;;;;8.10;74.02;103047.06;4934633;28;20038;-56
2023/02/04 09:37:41;;;;;;;0.20;0.20;;;;;;;7.96;74.37;103043.41;4950161;28;20043;-60
2023/02/04 09:40:08;;;;;;;0.10;0.10;;;;;;;8.18;72.63;103049.19;4940682;28;20034;-58
2023/02/04 09:42:34;;;;;;;0.10;0.10;;;;;;;8.25;72.74;103050.75;4923969;28;20122;-60
2023/02/04 09:45:02;;;;;;;0.20;0.20;;;;;;;8.30;72.40;103050.72;4934561;28;20513;-59
2023/02/04 09:47:28;;;;;;;0.10;0.10;;;;;;;8.32;71.97;103051.25;4927480;28;20034;-60
2023/02/04 09:49:53;;;;;;;0.10;0.10;;;;;;;8.41;71.63;103042.31;4927147;28;20039;-58
2023/02/04 09:52:20;;;;;;;0.15;0.15;;;;;;;8.47;71.75;103048.44;4931602;28;20035;-57
2023/02/04 09:54:46;;;;;;;0.13;0.13;;;;;;;8.56;70.79;103042.19;4934889;28;20038;-60
2023/02/04 09:57:18;;;;;;;0.13;0.13;;;;;;;8.17;70.88;103060.16;4934354;28;20035;-58
2023/02/04 10:00:03;;;;;;;0.20;0.20;;;;;;;8.31;70.70;103055.81;4929707;28;20047;-57
2023/02/04 10:02:30;;;;;;;0.20;0.20;;;;;;;8.47;71.61;103056.50;4888436;29;20040;-59
2023/02/04 10:04:56;;;;;;;0.13;0.13;;;;;;;8.49;72.51;103059.72;4902821;29;20048;-60
2023/02/04 10:07:25;;;;;;;0.20;0.20;;;;;;;8.55;72.35;103063.97;4907088;29;20147;-59
2023/02/04 10:09:52;;;;;;;0.20;0.20;;;;;;;8.64;72.36;103052.31;4904851;29;20040;-59
2023/02/04 10:12:18;;;;;;;0.20;0.20;;;;;;;8.67;72.05;103067.88;4903865;29;20092;-58
2023/02/04 10:14:43;;;;;;;0.85;0.25;;;;;;;8.57;71.16;103067.16;4893902;29;20403;-56
2023/02/04 10:17:11;;;;;;;0.25;0.25;;;;;;;8.58;70.65;103061.50;4900719;29;20169;-58
2023/02/04 10:19:36;;;;;;;0.15;0.15;;;;;;;8.74;70.93;103073.72;4909113;29;20059;-60
2023/02/04 10:22:03;;;;;;;0.10;0.10;;;;;;;8.83;70.92;103073.91;4893753;29;20055;-54
2023/02/04 10:24:29;;;;;;;0.65;0.65;;;;;;;8.85;71.61;103075.22;4906924;29;20047;-56
2023/02/04 10:27:07;;;;;;;0.10;0.10;;;;;;;8.95;71.43;103067.09;4886475;29;20527;-55
2023/02/04 10:29:32;;;;;;;0.10;0.10;;;;;;;8.99;70.57;103070.00;4906617;29;20122;-56
2023/02/04 10:31:58;;;;;;;0.10;0.10;;;;;;;9.02;70.02;103061.34;4900855;29;20121;-57
2023/02/04 10:34:38;;;;;;;0.20;0.20;;;;;;;9.13;69.62;103067.44;4910752;29;20302;-55
2023/02/04 10:37:19;;;;;;;0.10;0.10;;;;;;;9.00;68.40;103077.00;4911005;29;20076;-52
2023/02/04 10:39:45;;;;;;;0.20;0.20;;;;;;;9.04;67.75;103075.31;4931961;29;20394;-52
2023/02/04 10:42:25;;;;;;;0.38;0.38;;;;;;;8.67;68.21;103077.81;4935385;28;20035;-54
2023/02/04 10:44:51;;;;;;;0.20;0.20;;;;;;;8.69;69.71;103089.88;4943834;28;20038;-54
2023/02/04 10:47:19;;;;;;;0.10;0.10;;;;;;;8.76;68.31;103086.88;4933763;28;20102;-58
2023/02/04 10:49:54;;;;;;;0.10;0.10;;;;;;;8.92;67.24;103089.13;4939295;28;20039;-56
2023/02/04 10:52:23;;;;;;;0.10;0.10;;;;;;;8.85;68.23;103103.97;4941592;28;20027;-57
2023/02/04 10:54:49;;;;;;;0.30;0.30;;;;;;;8.93;68.52;103090.75;4959525;23;20109;-55
2023/02/04 10:57:29;;;;;;;0.20;0.20;;;;;;;9.09;68.46;103089.53;4934610;29;20035;-54
2023/02/04 10:59:58;;;;;;;0.20;0.20;;;;;;;8.98;67.47;103096.06;4946557;28;20039;-59
2023/02/04 11:02:43;;;;;;;0.20;0.20;;;;;;;8.80;66.89;103091.41;4945151;28;20028;-56
2023/02/04 11:05:18;;;;;;;0.10;0.10;;;;;;;8.74;66.93;103095.22;4948383;28;20036;-54
2023/02/04 11:07:45;;;;;;;0.10;0.10;;;;;;;8.85;66.78;103088.66;4943452;23;20164;-56
2023/02/04 11:10:20;;;;;;;0.15;0.15;;;;;;;8.99;67.12;103097.69;4937789;28;20094;-55
2023/02/04 11:12:46;;;;;;;0.30;0.30;;;;;;;8.95;67.41;103096.63;4922917;29;20027;-55
2023/02/04 11:15:47;;;;;;;0.10;0.10;;;;;;;8.83;67.54;103087.34;4927859;29;20099;-57
2023/02/04 11:18:19;;;;;;;0.20;0.20;;;;;;;8.49;66.39;103098.09;4920954;29;20493;-54
2023/02/04 11:20:45;;;;;;;0.30;0.30;;;;;;;8.46;66.61;103104.03;4918450;29;20498;-58
2023/02/04 11:23:14;;;;;;;0.20;0.20;;;;;;;8.57;66.92;103104.75;4917037;29;20482;-59
2023/02/04 11:28:25;;;;;;;0.17;0.17;;;;;;;8.65;65.88;103096.88;4899177;29;20463;-60
2023/02/04 11:31:01;;;;;;;0.17;0.17;;;;;;;8.69;66.51;103097.94;4903506;29;20443;-61
2023/02/04 11:33:38;;;;;;;0.10;0.10;;;;;;;8.69;67.08;103094.47;4885954;29;20115;-59
2023/02/04 11:36:06;;;;;;;0.10;0.10;;;;;;;8.70;65.45;103099.53;4877567;29;20040;-60